sensor_id;sensor_type;location;lat;lon;timestamp;P1;durP1;ratioP1;P2;durP2;ratioP2
57893;SDS011;43710;47.460;19.034;2024-03-07T04:58:51;8.05;;;5.85;;
57893;SDS011;43710;47.460;19.034;2024-03-07T05:01:55;8.18;;;5.60;;
57893;SDS011;43710;47.460;19.034;2024-03-07T05:04:58;7.47;;;5.50;;
57893;SDS011;43710;47.460;19.034;2024-03-07T05:08:01;15.35;;;6.45;;
57893;SDS011;43710;47.460;19.034;2024-03-07T05:11:03;6.78;;;5.50;;
57893;SDS011;43710;47.460;19.034;2024-03-07T05:14:06;9.43;;;5.60;;
57893;SDS011;43710;47.460;19.034;2024-03-07T05:17:08;8.13;;;6.03;;
57893;SDS011;43710;47.460;19.034;2024-03-07T05:20:11;8.00;;;5.60;;
57893;SDS011;43710;47.460;19.034;2024-03-07T05:23:16;7.47;;;5.30;;
57893;SDS011;43710;47.460;19.034;2024-03-07T05:26:19;8.00;;;5.60;;
57893;SDS011;43710;47.460;19.034;2024-03-07T05:29:22;8.40;;;5.40;;
57893;SDS011;43710;47.460;19.034;2024-03-07T05:32:25;8.65;;;5.40;;
57893;SDS011;43710;47.460;19.034;2024-03-07T05:35:29;7.87;;;6.15;;
57893;SDS011;43710;47.460;19.034;2024-03-07T05:38:32;7.72;;;5.07;;
57893;SDS011;43710;47.460;19.034;2024-03-07T05:41:34;7.93;;;5.72;;
57893;SDS011;43710;47.460;19.034;2024-03-07T05:44:36;6.93;;;5.18;;
57893;SDS011;43710;47.460;19.034;2024-03-07T05:47:38;6.97;;;5.32;;
57893;SDS011;43710;47.460;19.034;2024-03-07T05:50:41;12.35;;;5.45;;
57893;SDS011;43710;47.460;19.034;2024-03-07T05:53:47;8.07;;;5.43;;
57893;SDS011;43710;47.460;19.034;2024-03-07T05:56:50;9.98;;;5.57;;
57893;SDS011;43710;47.460;19.034;2024-03-07T05:59:52;7.05;;;5.72;;
57893;SDS011;43710;47.460;19.034;2024-03-07T06:02:55;6.57;;;5.22;;
57893;SDS011;43710;47.460;19.034;2024-03-07T06:05:58;6.28;;;4.40;;
57893;SDS011;43710;47.460;19.034;2024-03-07T06:09:01;9.70;;;5.22;;
57893;SDS011;43710;47.460;19.034;2024-03-07T06:12:11;6.65;;;5.07;;
57893;SDS011;43710;47.460;19.034;2024-03-07T06:15:24;6.03;;;4.78;;
57893;SDS011;43710;47.460;19.034;2024-03-07T06:18:26;6.22;;;4.47;;
57893;SDS011;43710;47.460;19.034;2024-03-07T06:21:34;7.70;;;5.10;;
57893;SDS011;43710;47.460;19.034;2024-03-07T06:24:37;8.27;;;5.03;;
57893;SDS011;43710;47.460;19.034;2024-03-07T06:27:42;8.60;;;4.80;;
57893;SDS011;43710;47.460;19.034;2024-03-07T06:30:50;7.37;;;4.93;;
57893;SDS011;43710;47.460;19.034;2024-03-07T06:33:52;6.65;;;4.95;;
57893;SDS011;43710;47.460;19.034;2024-03-07T06:36:55;7.72;;;4.75;;
57893;SDS011;43710;47.460;19.034;2024-03-07T06:39:57;6.30;;;4.80;;
57893;SDS011;43710;47.460;19.034;2024-03-07T06:43:00;6.85;;;5.10;;
57893;SDS011;43710;47.460;19.034;2024-03-07T06:46:02;7.12;;;5.10;;
57893;SDS011;43710;47.460;19.034;2024-03-07T06:49:05;7.10;;;5.62;;
57893;SDS011;43710;47.460;19.034;2024-03-07T06:52:12;8.00;;;4.90;;
57893;SDS011;43710;47.460;19.034;2024-03-07T06:55:15;6.00;;;4.95;;
57893;SDS011;43710;47.460;19.034;2024-03-07T06:58:21;9.85;;;4.97;;
57893;SDS011;43710;47.460;19.034;2024-03-07T07:01:24;7.28;;;5.00;;
57893;SDS011;43710;47.460;19.034;2024-03-07T07:07:44;5.47;;;4.35;;
57893;SDS011;43710;47.460;19.034;2024-03-07T07:10:46;6.40;;;5.00;;
57893;SDS011;43710;47.460;19.034;2024-03-07T07:13:49;6.68;;;4.85;;
57893;SDS011;43710;47.460;19.034;2024-03-07T07:16:51;8.40;;;5.43;;
57893;SDS011;43710;47.460;19.034;2024-03-07T07:19:57;10.35;;;4.78;;
57893;SDS011;43710;47.460;19.034;2024-03-07T07:22:59;6.20;;;5.10;;
57893;SDS011;43710;47.460;19.034;2024-03-07T07:26:04;7.90;;;5.55;;
57893;SDS011;43710;47.460;19.034;2024-03-07T07:29:07;6.70;;;5.10;;
57893;SDS011;43710;47.460;19.034;2024-03-07T07:32:10;7.05;;;5.20;;
57893;SDS011;43710;47.460;19.034;2024-03-07T07:35:14;8.70;;;5.35;;
57893;SDS011;43710;47.460;19.034;2024-03-07T07:38:17;7.57;;;5.15;;
57893;SDS011;43710;47.460;19.034;2024-03-07T07:41:20;7.10;;;5.05;;
57893;SDS011;43710;47.460;19.034;2024-03-07T07:44:22;5.72;;;4.78;;
57893;SDS011;43710;47.460;19.034;2024-03-07T07:47:25;8.10;;;5.32;;
57893;SDS011;43710;47.460;19.034;2024-03-07T07:50:27;9.43;;;5.20;;
57893;SDS011;43710;47.460;19.034;2024-03-07T07:53:30;8.52;;;6.05;;
57893;SDS011;43710;47.460;19.034;2024-03-07T07:56:33;7.70;;;5.97;;
57893;SDS011;43710;47.460;19.034;2024-03-07T07:59:35;9.45;;;6.18;;
57893;SDS011;43710;47.460;19.034;2024-03-07T08:02:39;8.75;;;5.57;;
57893;SDS011;43710;47.460;19.034;2024-03-07T08:05:41;6.65;;;5.53;;
57893;SDS011;43710;47.460;19.034;2024-03-07T08:08:45;7.05;;;5.55;;
57893;SDS011;43710;47.460;19.034;2024-03-07T08:11:48;7.55;;;5.30;;
57893;SDS011;43710;47.460;19.034;2024-03-07T08:14:52;6.78;;;5.50;;
57893;SDS011;43710;47.460;19.034;2024-03-07T08:17:55;8.40;;;5.60;;
57893;SDS011;43710;47.460;19.034;2024-03-07T08:20:58;8.15;;;6.45;;
57893;SDS011;43710;47.460;19.034;2024-03-07T08:24:00;9.10;;;5.82;;
57893;SDS011;43710;47.460;19.034;2024-03-07T08:27:05;7.00;;;5.40;;
57893;SDS011;43710;47.460;19.034;2024-03-07T08:30:10;8.90;;;5.75;;
57893;SDS011;43710;47.460;19.034;2024-03-07T08:33:16;7.62;;;5.25;;
57893;SDS011;43710;47.460;19.034;2024-03-07T08:36:18;7.45;;;5.40;;
57893;SDS011;43710;47.460;19.034;2024-03-07T08:39:21;6.40;;;5.28;;
57893;SDS011;43710;47.460;19.034;2024-03-07T08:42:24;6.87;;;5.47;;
57893;SDS011;43710;47.460;19.034;2024-03-07T08:45:27;6.37;;;5.30;;
57893;SDS011;43710;47.460;19.034;2024-03-07T08:48:30;6.15;;;4.93;;
57893;SDS011;43710;47.460;19.034;2024-03-07T08:51:32;6.62;;;5.62;;
57893;SDS011;43710;47.460;19.034;2024-03-07T08:54:35;6.43;;;4.62;;
57893;SDS011;43710;47.460;19.034;2024-03-07T08:57:38;6.28;;;5.15;;
57893;SDS011;43710;47.460;19.034;2024-03-07T09:00:43;6.53;;;5.28;;
57893;SDS011;43710;47.460;19.034;2024-03-07T09:03:47;6.75;;;4.60;;
57893;SDS011;43710;47.460;19.034;2024-03-07T09:06:50;5.43;;;4.72;;
57893;SDS011;43710;47.460;19.034;2024-03-07T09:09:52;5.65;;;4.82;;
57893;SDS011;43710;47.460;19.034;2024-03-07T09:12:55;5.72;;;4.68;;
57893;SDS011;43710;47.460;19.034;2024-03-07T09:15:57;5.57;;;4.70;;
57893;SDS011;43710;47.460;19.034;2024-03-07T09:19:00;8.00;;;5.15;;
57893;SDS011;43710;47.460;19.034;2024-03-07T09:22:02;7.72;;;4.80;;
57893;SDS011;43710;47.460;19.034;2024-03-07T09:25:05;5.72;;;4.93;;
57893;SDS011;43710;47.460;19.034;2024-03-07T09:28:08;6.12;;;5.43;;
57893;SDS011;43710;47.460;19.034;2024-03-07T09:31:10;5.90;;;5.03;;
57893;SDS011;43710;47.460;19.034;2024-03-07T09:34:14;6.25;;;5.22;;
57893;SDS011;43710;47.460;19.034;2024-03-07T09:37:18;6.07;;;5.37;;
57893;SDS011;43710;47.460;19.034;2024-03-07T09:40:21;6.32;;;5.22;;
57893;SDS011;43710;47.460;19.034;2024-03-07T09:43:27;7.72;;;5.35;;
57893;SDS011;43710;47.460;19.034;2024-03-07T09:46:31;6.80;;;5.68;;
57893;SDS011;43710;47.460;19.034;2024-03-07T09:49:34;8.00;;;4.82;;
57893;SDS011;43710;47.460;19.034;2024-03-07T09:52:38;6.22;;;5.35;;
57893;SDS011;43710;47.460;19.034;2024-03-07T09:55:41;6.35;;;5.15;;
57893;SDS011;43710;47.460;19.034;2024-03-07T09:58:44;6.87;;;5.10;;
57893;SDS011;43710;47.460;19.034;2024-03-07T10:01:54;6.32;;;5.07;;
57893;SDS011;43710;47.460;19.034;2024-03-07T10:04:58;6.12;;;5.10;;
57893;SDS011;43710;47.460;19.034;2024-03-07T10:08:01;10.40;;;5.53;;
57893;SDS011;43710;47.460;19.034;2024-03-07T10:11:04;6.85;;;6.15;;
57893;SDS011;43710;47.460;19.034;2024-03-07T10:14:07;7.53;;;6.15;;
57893;SDS011;43710;47.460;19.034;2024-03-07T10:17:10;7.60;;;6.05;;
57893;SDS011;43710;47.460;19.034;2024-03-07T10:20:13;7.25;;;5.78;;
57893;SDS011;43710;47.460;19.034;2024-03-07T10:23:19;8.32;;;6.12;;
57893;SDS011;43710;47.460;19.034;2024-03-07T10:26:22;7.30;;;6.30;;
57893;SDS011;43710;47.460;19.034;2024-03-07T10:29:26;6.93;;;5.97;;
57893;SDS011;43710;47.460;19.034;2024-03-07T10:32:29;8.52;;;6.32;;
57893;SDS011;43710;47.460;19.034;2024-03-07T10:35:32;57.47;;;8.32;;
57893;SDS011;43710;47.460;19.034;2024-03-07T10:38:38;7.97;;;6.53;;
57893;SDS011;43710;47.460;19.034;2024-03-07T10:41:47;8.18;;;7.30;;
57893;SDS011;43710;47.460;19.034;2024-03-07T10:44:51;10.57;;;7.25;;
57893;SDS011;43710;47.460;19.034;2024-03-07T10:47:58;7.55;;;6.75;;
57893;SDS011;43710;47.460;19.034;2024-03-07T10:51:21;8.45;;;7.03;;
57893;SDS011;43710;47.460;19.034;2024-03-07T10:54:48;8.30;;;7.05;;
57893;SDS011;43710;47.460;19.034;2024-03-07T10:58:22;7.70;;;6.70;;
57893;SDS011;43710;47.460;19.034;2024-03-07T11:01:35;9.55;;;6.50;;
57893;SDS011;43710;47.460;19.034;2024-03-07T11:04:43;8.25;;;6.97;;
57893;SDS011;43710;47.460;19.034;2024-03-07T11:07:47;8.13;;;7.03;;
57893;SDS011;43710;47.460;19.034;2024-03-07T11:10:51;7.95;;;6.30;;
57893;SDS011;43710;47.460;19.034;2024-03-07T11:13:54;8.77;;;7.05;;
57893;SDS011;43710;47.460;19.034;2024-03-07T11:16:57;8.57;;;7.22;;
57893;SDS011;43710;47.460;19.034;2024-03-07T11:20:23;8.00;;;6.78;;
57893;SDS011;43710;47.460;19.034;2024-03-07T11:26:35;10.07;;;7.28;;
57893;SDS011;43710;47.460;19.034;2024-03-07T11:29:39;8.55;;;6.95;;
57893;SDS011;43710;47.460;19.034;2024-03-07T11:32:48;8.77;;;7.03;;
57893;SDS011;43710;47.460;19.034;2024-03-07T11:35:55;9.73;;;7.07;;
57893;SDS011;43710;47.460;19.034;2024-03-07T11:38:59;9.00;;;7.30;;
57893;SDS011;43710;47.460;19.034;2024-03-07T11:42:05;8.63;;;7.00;;
57893;SDS011;43710;47.460;19.034;2024-03-07T11:45:08;9.63;;;7.72;;
57893;SDS011;43710;47.460;19.034;2024-03-07T11:48:12;8.27;;;7.32;;
57893;SDS011;43710;47.460;19.034;2024-03-07T11:51:17;9.02;;;7.62;;
57893;SDS011;43710;47.460;19.034;2024-03-07T11:54:20;8.38;;;7.30;;
57893;SDS011;43710;47.460;19.034;2024-03-07T11:57:27;9.20;;;7.60;;
57893;SDS011;43710;47.460;19.034;2024-03-07T12:00:34;9.90;;;8.25;;
57893;SDS011;43710;47.460;19.034;2024-03-07T12:03:37;9.80;;;7.78;;
57893;SDS011;43710;47.460;19.034;2024-03-07T12:06:40;11.07;;;8.27;;
57893;SDS011;43710;47.460;19.034;2024-03-07T12:09:43;9.82;;;7.85;;
57893;SDS011;43710;47.460;19.034;2024-03-07T12:12:52;10.77;;;8.68;;
57893;SDS011;43710;47.460;19.034;2024-03-07T12:19:01;9.75;;;8.23;;
57893;SDS011;43710;47.460;19.034;2024-03-07T12:22:11;9.98;;;8.40;;
57893;SDS011;43710;47.460;19.034;2024-03-07T12:25:18;10.75;;;8.20;;
57893;SDS011;43710;47.460;19.034;2024-03-07T12:28:24;9.30;;;7.62;;
57893;SDS011;43710;47.460;19.034;2024-03-07T12:31:31;9.88;;;8.23;;
57893;SDS011;43710;47.460;19.034;2024-03-07T12:34:36;10.57;;;8.60;;
57893;SDS011;43710;47.460;19.034;2024-03-07T12:37:42;10.40;;;9.10;;
57893;SDS011;43710;47.460;19.034;2024-03-07T12:40:45;9.82;;;8.07;;
57893;SDS011;43710;47.460;19.034;2024-03-07T12:43:49;9.65;;;7.87;;
57893;SDS011;43710;47.460;19.034;2024-03-07T12:46:55;10.50;;;8.65;;
57893;SDS011;43710;47.460;19.034;2024-03-07T12:50:00;16.87;;;8.55;;
57893;SDS011;43710;47.460;19.034;2024-03-07T12:53:03;9.20;;;7.70;;
57893;SDS011;43710;47.460;19.034;2024-03-07T12:56:07;10.57;;;8.25;;
57893;SDS011;43710;47.460;19.034;2024-03-07T12:59:11;10.57;;;8.20;;
57893;SDS011;43710;47.460;19.034;2024-03-07T13:02:13;9.98;;;8.35;;
57893;SDS011;43710;47.460;19.034;2024-03-07T13:05:16;10.32;;;8.18;;
57893;SDS011;43710;47.460;19.034;2024-03-07T13:08:23;9.98;;;8.50;;
57893;SDS011;43710;47.460;19.034;2024-03-07T13:11:29;10.88;;;8.13;;
57893;SDS011;43710;47.460;19.034;2024-03-07T13:14:34;13.05;;;8.77;;
57893;SDS011;43710;47.460;19.034;2024-03-07T13:17:36;10.23;;;7.82;;
57893;SDS011;43710;47.460;19.034;2024-03-07T13:20:41;10.05;;;8.48;;
57893;SDS011;43710;47.460;19.034;2024-03-07T13:23:45;12.20;;;8.88;;
57893;SDS011;43710;47.460;19.034;2024-03-07T13:26:48;9.27;;;8.00;;
57893;SDS011;43710;47.460;19.034;2024-03-07T13:29:51;9.15;;;8.13;;
57893;SDS011;43710;47.460;19.034;2024-03-07T13:32:54;9.75;;;7.82;;
57893;SDS011;43710;47.460;19.034;2024-03-07T13:35:57;10.85;;;8.52;;
57893;SDS011;43710;47.460;19.034;2024-03-07T13:39:00;10.60;;;8.30;;
57893;SDS011;43710;47.460;19.034;2024-03-07T13:42:03;10.68;;;9.27;;
57893;SDS011;43710;47.460;19.034;2024-03-07T13:45:08;11.02;;;9.15;;
57893;SDS011;43710;47.460;19.034;2024-03-07T13:48:14;12.70;;;9.32;;
57893;SDS011;43710;47.460;19.034;2024-03-07T13:51:19;12.20;;;9.07;;
57893;SDS011;43710;47.460;19.034;2024-03-07T13:54:22;11.18;;;9.52;;
57893;SDS011;43710;47.460;19.034;2024-03-07T13:57:48;10.15;;;8.73;;
57893;SDS011;43710;47.460;19.034;2024-03-07T14:14:48;11.45;;;9.20;;
57893;SDS011;43710;47.460;19.034;2024-03-07T14:25:11;10.80;;;8.93;;
57893;SDS011;43710;47.460;19.034;2024-03-07T14:31:56;11.25;;;9.73;;
57893;SDS011;43710;47.460;19.034;2024-03-07T14:35:07;11.30;;;9.40;;
57893;SDS011;43710;47.460;19.034;2024-03-07T14:41:57;10.73;;;8.57;;
57893;SDS011;43710;47.460;19.034;2024-03-07T14:45:03;10.15;;;8.45;;
57893;SDS011;43710;47.460;19.034;2024-03-07T14:51:16;14.25;;;8.82;;
57893;SDS011;43710;47.460;19.034;2024-03-07T14:54:20;12.13;;;8.55;;
57893;SDS011;43710;47.460;19.034;2024-03-07T14:57:23;13.13;;;8.88;;
57893;SDS011;43710;47.460;19.034;2024-03-07T15:00:26;10.68;;;8.27;;
57893;SDS011;43710;47.460;19.034;2024-03-07T15:03:38;11.65;;;9.45;;
57893;SDS011;43710;47.460;19.034;2024-03-07T15:06:43;10.98;;;7.82;;
57893;SDS011;43710;47.460;19.034;2024-03-07T15:09:46;11.48;;;8.43;;
57893;SDS011;43710;47.460;19.034;2024-03-07T15:12:48;13.05;;;8.80;;
57893;SDS011;43710;47.460;19.034;2024-03-07T15:15:51;11.88;;;8.77;;
57893;SDS011;43710;47.460;19.034;2024-03-07T15:18:54;9.98;;;8.25;;
57893;SDS011;43710;47.460;19.034;2024-03-07T15:21:56;11.57;;;8.07;;
57893;SDS011;43710;47.460;19.034;2024-03-07T15:24:58;11.50;;;9.13;;
57893;SDS011;43710;47.460;19.034;2024-03-07T15:28:04;14.30;;;9.10;;
57893;SDS011;43710;47.460;19.034;2024-03-07T15:31:06;13.13;;;9.38;;
57893;SDS011;43710;47.460;19.034;2024-03-07T15:34:09;11.38;;;8.95;;
57893;SDS011;43710;47.460;19.034;2024-03-07T15:37:11;10.85;;;8.40;;
57893;SDS011;43710;47.460;19.034;2024-03-07T15:40:16;11.15;;;9.43;;
57893;SDS011;43710;47.460;19.034;2024-03-07T15:43:19;12.30;;;9.48;;
57893;SDS011;43710;47.460;19.034;2024-03-07T15:46:21;11.30;;;8.88;;
57893;SDS011;43710;47.460;19.034;2024-03-07T15:49:24;10.63;;;8.75;;
57893;SDS011;43710;47.460;19.034;2024-03-07T15:52:27;11.90;;;7.85;;
57893;SDS011;43710;47.460;19.034;2024-03-07T15:55:30;9.30;;;8.00;;
57893;SDS011;43710;47.460;19.034;2024-03-07T15:58:34;9.35;;;7.97;;
57893;SDS011;43710;47.460;19.034;2024-03-07T16:01:36;11.12;;;8.30;;
57893;SDS011;43710;47.460;19.034;2024-03-07T16:04:39;10.70;;;8.40;;
57893;SDS011;43710;47.460;19.034;2024-03-07T16:07:42;8.73;;;7.37;;
57893;SDS011;43710;47.460;19.034;2024-03-07T16:10:44;12.45;;;8.68;;
57893;SDS011;43710;47.460;19.034;2024-03-07T16:13:47;10.70;;;8.93;;
57893;SDS011;43710;47.460;19.034;2024-03-07T16:16:50;9.82;;;8.05;;
57893;SDS011;43710;47.460;19.034;2024-03-07T16:19:53;11.50;;;9.50;;
57893;SDS011;43710;47.460;19.034;2024-03-07T16:22:55;10.32;;;8.77;;
57893;SDS011;43710;47.460;19.034;2024-03-07T16:25:58;11.00;;;9.02;;
57893;SDS011;43710;47.460;19.034;2024-03-07T16:29:02;10.48;;;8.43;;
57893;SDS011;43710;47.460;19.034;2024-03-07T16:32:07;10.63;;;8.88;;
57893;SDS011;43710;47.460;19.034;2024-03-07T16:35:14;9.90;;;8.60;;
57893;SDS011;43710;47.460;19.034;2024-03-07T16:38:17;10.50;;;8.65;;
57893;SDS011;43710;47.460;19.034;2024-03-07T16:41:20;10.60;;;8.27;;
57893;SDS011;43710;47.460;19.034;2024-03-07T16:44:22;11.32;;;9.05;;
57893;SDS011;43710;47.460;19.034;2024-03-07T16:47:25;13.15;;;9.07;;
57893;SDS011;43710;47.460;19.034;2024-03-07T16:50:28;10.75;;;8.77;;
57893;SDS011;43710;47.460;19.034;2024-03-07T16:53:32;10.55;;;8.77;;
57893;SDS011;43710;47.460;19.034;2024-03-07T16:56:37;12.63;;;8.98;;
